Sembawang Air Base

WSAG · Singapore

METAR history WSAG · Sembawang Air Base

Below you see METARs of the last few days. Select a year to browse through older METARs, from the year 2007 onwards.

May 19, 2024

Time Code Weather Temp. Visibility Ceiling Wind METAR/SPECI
04:00
V
29 °C 10 km+ 30,000 ft 160° 160° 5 kt METAR WSSL 182000Z 16005KT 9999 FEW018 BKN300 29/24 Q1006
03:00
V
28 °C 10 km+ 30,000 ft 170° 170° 6 kt METAR WSSL 181900Z 17006KT 9999 FEW018 BKN300 28/25 Q1006
02:00
V
28 °C 10 km+ 30,000 ft 190° 190° 4 kt METAR WSSL 181800Z 19004KT 9999 FEW018 BKN300 28/25 Q1007
01:00
V
29 °C 10 km+ 30,000 ft 170° 170° 5 kt METAR WSSL 181700Z 17005KT 120V200 9999 FEW018 SCT280 BKN300 29/25 Q1008
00:00
V
28 °C 10 km+ 28,000 ft 150° 150° 5 kt METAR WSSL 181600Z 15005KT 120V190 9999 FEW018 BKN280 28/25 Q1008

May 18, 2024

Time Code Weather Temp. Visibility Ceiling Wind METAR/SPECI
23:00
V
28 °C 10 km+ 28,000 ft 120° 120° 3 kt METAR WSSL 181500Z 12003KT 9999 FEW018 BKN280 28/25 Q1008
22:00
V
29 °C 10 km+ 28,000 ft 160° 160° 6 kt METAR WSSL 181400Z 16006KT 130V190 9999 FEW018 SCT160 BKN280 29/24 Q1008
21:00
V
29 °C 10 km+ 28,000 ft 170° 170° 4 kt METAR WSSL 181300Z 17004KT 9999 FEW018 BKN280 29/25 Q1007
20:00
V
29 °C 10 km+ 27,000 ft Var Var 2 kt METAR WSSL 181200Z VRB02KT 9999 FEW018 SCT050 BKN270 29/25 Q1007
19:00
V
29 °C 10 km+ 27,000 ft Var Var 2 kt METAR WSSL 181100Z VRB02KT 9999 FEW018TCU SCT040 BKN270 29/25 Q1006
18:00
V
29 °C 10 km+ 27,000 ft 260° 260° 3 kt METAR WSSL 181000Z 26003KT 210V310 9999 FEW018TCU FEW020CB BKN270 29/25 Q1006
17:00
V
29 °C 10 km+ 27,000 ft 240° 240° 4 kt METAR WSSL 180900Z 24004KT 200V320 9999 VCSH FEW018TCU FEW020CB SCT060 BKN270 29/25 Q1006 RETS
16:00
V
31 °C 10 km+ - 140° 140° 6 kt METAR WSSL 180800Z 14006KT 100V170 9999 VCTS FEW016CB FEW017TCU SCT050 31/24 Q1006
15:00
V
30 °C 10 km+ 27,000 ft 090° 090° 10 kt METAR WSSL 180700Z 09010KT 060V120 9999 VCSH FEW017CB FEW018TCU SCT160 BKN270 30/24 Q1006 RETS
14:00
V
32 °C 10 km+ 27,000 ft 120° 120° 8 kt METAR WSSL 180600Z 12008KT 090V150 9999 VCTS FEW017CB FEW018TCU BKN270 32/23 Q1006
13:43
V
33 °C 10 km+ 30,000 ft 130° 130° 6 kt METAR WSSL 180543Z 13006KT 070V190 9999 VCTS FEW017CB SCT018TCU BKN300 33/23 Q1006
13:00
V
34 °C 10 km+ 30,000 ft 160° 160° 6 kt METAR WSSL 180500Z 16006KT 130V190 9999 FEW018TCU FEW020CB BKN300 34/23 Q1007
12:00
V
32 °C 10 km+ 30,000 ft 150° 150° 9 kt METAR WSSL 180400Z 15009KT 120V200 9999 VCSH FEW016 SCT018TCU BKN300 32/25 Q1008
11:00
V
32 °C 10 km+ 30,000 ft 180° 180° 6 kt METAR WSSL 180300Z 18006KT 130V220 9999 FEW018TCU SCT020 BKN300 32/24 Q1009
10:00
V
32 °C 10 km+ 30,000 ft 140° 140° 6 kt METAR WSSL 180200Z 14006KT 080V180 9999 SCT018 FEW020TCU BKN300 32/26 Q1009
09:00
V
30 °C 9 km 30,000 ft Var Var 2 kt METAR WSSL 180100Z VRB02KT 9000 FEW018 BKN300 30/26 Q1009
08:00
M
29 °C 6 km 30,000 ft 040° 040° 1 kt METAR WSSL 180000Z 04001KT 6000 FEW018 BKN300 29/26 Q1008
07:00
M
27 °C 7 km - Var Var 1 kt METAR WSSL 172300Z VRB01KT 7000 FEW018 SCT300 27/26 Q1008
06:00
V
27 °C 9 km - Var Var 1 kt METAR WSSL 172200Z VRB01KT 9000 FEW018 SCT300 27/27 Q1007
05:00
V
27 °C 10 km+ - Var Var 1 kt METAR WSSL 172100Z VRB01KT 9999 FEW018 SCT300 27/26 Q1007
04:00
V
27 °C 10 km+ - Var Var 1 kt METAR WSSL 172000Z VRB01KT CAVOK 27/26 Q1007
03:00
V
27 °C 10 km+ - 270° 270° 2 kt METAR WSSL 171900Z 27002KT CAVOK 27/26 Q1007
02:00
V
28 °C 10 km+ 30,000 ft 120° 120° 2 kt METAR WSSL 171800Z 12002KT 9999 FEW018 BKN300 28/25 Q1008
01:00
V
28 °C 10 km+ 30,000 ft Var Var 1 kt METAR WSSL 171700Z VRB01KT 9999 FEW018 BKN300 28/26 Q1009
00:00
V
28 °C 10 km+ 30,000 ft Var Var 1 kt METAR WSSL 171600Z VRB01KT 9999 FEW018 BKN300 28/26 Q1009

May 17, 2024

Time Code Weather Temp. Visibility Ceiling Wind METAR/SPECI
23:00
V
29 °C 10 km+ 30,000 ft Var Var 2 kt METAR WSSL 171500Z VRB02KT 9999 FEW018 BKN300 29/26 Q1009
22:00
V
29 °C 10 km+ 30,000 ft 180° 180° 3 kt METAR WSSL 171400Z 18003KT 9999 FEW018 BKN300 29/26 Q1009
21:00
V
29 °C 10 km+ 30,000 ft Var Var 2 kt METAR WSSL 171300Z VRB02KT 9999 FEW018 BKN300 29/26 Q1008
20:00
V
30 °C 10 km+ 30,000 ft 140° 140° 3 kt METAR WSSL 171200Z 14003KT 9999 FEW018 BKN300 30/25 Q1008
19:00
V
30 °C 10 km+ 30,000 ft 150° 150° 5 kt METAR WSSL 171100Z 15005KT 110V180 9999 FEW018 FEW020TCU BKN300 30/25 Q1006
18:00
V
31 °C 10 km+ 30,000 ft 130° 130° 4 kt METAR WSSL 171000Z 13004KT 9999 FEW018 FEW020TCU BKN300 31/25 Q1006
17:00
V
31 °C 10 km+ 30,000 ft 140° 140° 5 kt METAR WSSL 170900Z 14005KT 110V170 9999 FEW016 FEW020TCU BKN300 31/24 Q1006
16:00
V
32 °C 10 km+ 30,000 ft 170° 170° 4 kt METAR WSSL 170800Z 17004KT 120V230 9999 FEW018 FEW020CB BKN300 32/26 Q1006
15:25
V
32 °C 10 km+ 30,000 ft 160° 160° 3 kt METAR WSSL 170725Z 16003KT 120V230 9999 FEW018TCU FEW020CB SCT280 BKN300 32/26 Q1006
15:00
V
30 °C 10 km+ - 180° 180° 4 kt METAR WSSL 170700Z 18004KT 110V210 9999 VCSH FEW015 FEW017TCU FEW018CB SCT280 30/25 Q1007 RETS RESHRA
14:20
V
29 °C 10 km+ - 110° 110° 8 kt METAR WSSL 170620Z 11008KT 070V140 9999 -TSRA FEW012 SCT015TCU FEW017CB 29/26 Q1007 RESHRA
14:12
V
30 °C 10 km+ 30,000 ft 130° 130° 8 kt METAR WSSL 170612Z 13008KT 090V160 9999 4000NE SHRA FEW013 SCT016TCU FEW018CB BKN300 30/25 Q1007
14:00
V
32 °C 10 km+ 30,000 ft 170° 170° 8 kt METAR WSSL 170600Z 17008KT 140V210 9999 VCSH FEW015 SCT017TCU FEW018CB BKN300 32/24 Q1007
13:00
V
33 °C 10 km+ 30,000 ft 160° 160° 7 kt METAR WSSL 170500Z 16007KT 120V200 9999 FEW018TCU FEW020CB BKN300 33/24 Q1008
12:00
V
32 °C 10 km+ 30,000 ft 170° 170° 7 kt METAR WSSL 170400Z 17007KT 140V200 9999 SCT020 BKN300 32/24 Q1009
11:00
V
32 °C 10 km+ 30,000 ft 170° 170° 8 kt METAR WSSL 170300Z 17008KT 140V200 9999 FEW018TCU SCT020 BKN300 32/25 Q1010
10:00
V
30 °C 8 km 30,000 ft Var Var 2 kt METAR WSSL 170200Z VRB02KT 8000 SCT018 BKN300 30/26 Q1010
09:00
V
28 °C 8 km 30,000 ft 250° 250° 3 kt METAR WSSL 170100Z 25003KT 180V310 8000 FEW018 BKN300 28/26 Q1009
08:00
M
27 °C 6 km 30,000 ft Var Var 1 kt METAR WSSL 170000Z VRB01KT 6000 FEW018 BKN300 27/26 Q1009
07:40
M
26 °C 5 km 30,000 ft Var Var 1 kt METAR WSSL 162340Z VRB01KT 5000 BR FEW016 BKN300 26/26 Q1008
07:00
I
26 °C 3 km 30,000 ft 360° 360° 0 kt METAR WSSL 162300Z 00000KT 3000 BR FEW016 BKN300 26/25 Q1008
06:00
M
26 °C 5 km 30,000 ft Var Var 1 kt METAR WSSL 162200Z VRB01KT 5000 BR FEW016 BKN300 26/25 Q1008
05:00
M
26 °C 6 km 30,000 ft Var Var 1 kt METAR WSSL 162100Z VRB01KT 6000 FEW016 BKN300 26/26 Q1008
04:00
M
26 °C 6 km 30,000 ft Var Var 1 kt METAR WSSL 162000Z VRB01KT 6000 FEW016 SCT150 BKN300 26/26 Q1008
03:00
M
26 °C 7 km 15,000 ft 230° 230° 2 kt METAR WSSL 161900Z 23002KT 7000 FEW016 BKN150 26/26 Q1009
02:00
V
26 °C 9 km 30,000 ft Var Var 1 kt METAR WSSL 161800Z VRB01KT 9000 FEW016 BKN300 26/26 Q1009
01:00
V
27 °C 10 km+ 15,000 ft Var Var 1 kt METAR WSSL 161700Z VRB01KT 9999 FEW016 BKN150 27/26 Q1010
00:00
V
27 °C 10 km+ 15,000 ft Var Var 1 kt METAR WSSL 161600Z VRB01KT 9999 FEW016 FEW018CB SCT040 BKN150 27/26 Q1010

May 16, 2024

Time Code Weather Temp. Visibility Ceiling Wind METAR/SPECI
23:00
V
27 °C 10 km+ 16,000 ft Var Var 1 kt METAR WSSL 161500Z VRB01KT 9999 -RA FEW016 FEW018CB SCT040 BKN160 27/26 Q1010
22:00
V
27 °C 10 km+ 27,000 ft Var Var 1 kt METAR WSSL 161400Z VRB01KT 9999 FEW017CB FEW018TCU BKN270 27/26 Q1010
21:00
V
27 °C 10 km+ 27,000 ft 360° 360° 0 kt METAR WSSL 161300Z 00000KT 9999 FEW018 BKN270 27/26 Q1009
20:00
V
27 °C 10 km+ 25,000 ft Var Var 1 kt METAR WSSL 161200Z VRB01KT 9999 FEW018 BKN250 27/26 Q1008
19:00
V
27 °C 10 km+ 20,000 ft Var Var 1 kt METAR WSSL 161100Z VRB01KT 9999 FEW018 SCT030 BKN200 27/26 Q1008
18:00
V
27 °C 10 km+ 20,000 ft Var Var 1 kt METAR WSSL 161000Z VRB01KT 9999 FEW018 BKN200 27/25 Q1007
17:00
V
26 °C 10 km+ 17,000 ft Var Var 2 kt METAR WSSL 160900Z VRB02KT 9999 FEW018 BKN170 26/25 Q1008
16:00
V
26 °C 10 km+ 17,000 ft 190° 190° 5 kt METAR WSSL 160800Z 19005KT 9999 -RA FEW017 SCT050 BKN170 26/25 Q1007 RETSRA RESHRA
15:40
V
25 °C 10 km+ 17,000 ft Var Var 2 kt METAR WSSL 160740Z VRB02KT 9999 -RA FEW017 SCT050 BKN170 25/25 Q1008 RETSRA
15:21
M
25 °C 5 km 16,000 ft 190° 190° 4 kt METAR WSSL 160721Z 19004KT 160V290 5000 TSRA FEW012 FEW015CB BKN160 25/25 Q1009 RESHRA
15:00
I
26 °C 3 km - 160° 160° 8 kt METAR WSSL 160700Z 16008KT 130V190 3000 +TSRA FEW010 SCT015CB 26/25 Q1009
14:53
I
26 °C 3 km - 160° 160° 11 kt METAR WSSL 160653Z 16011KT 3000 +TSRA FEW012 SCT015TCU FEW017CB 26/25 Q1009
14:00
V
30 °C 10 km+ - Var Var 5 kt METAR WSSL 160600Z VRB05KT 9999 VCSH FEW015 SCT018TCU 30/25 Q1009
Report a change